logo liguriameteo

Diretta Meteo Liegi-Bierset, Belgiodomenica 10 maggio ore 18:20

Mappa
Sereno 17 °C Sereno 24 Ore: T.min 9 T.max 19
Ponente Nord Km/h 20.3 Punto di rugiada: 7 °C Umidità: 51% Visibilità: 10 Km
Il sole sorge alle: 05:55 Il sole tramonta alle: 21:14
10 Maggio 2026 18:20 tempo osservato: Sereno Sereno 17 51 1009 vento: Nord N 20.3
10 Maggio 2026 17:50 tempo osservato: Sereno Sereno 18 55 1009 vento: Nord N/NE 20.3
10 Maggio 2026 17:20 tempo osservato: Sereno Sereno 18 55 1009 vento: Nord N/NE 20.3
10 Maggio 2026 16:50 tempo osservato: Sereno Sereno 18 55 1010 vento: Nord N/NE 18.5
10 Maggio 2026 16:20 tempo osservato: Sereno Sereno 18 55 1010 vento: Nord N/NE 20.3
10 Maggio 2026 15:50 tempo osservato: Sereno Sereno 18 55 1011 vento: Nord N/NE 22.2
10 Maggio 2026 15:20 tempo osservato: Poco Nuvoloso Poco Nuvoloso 18 55 1011 vento: Nord N 18.5
10 Maggio 2026 14:50 tempo osservato: Sereno Sereno 16 63 1011 vento: Nord N/NE 16.7
10 Maggio 2026 14:20 tempo osservato: Sereno Sereno 16 58 1012 vento: Nord N/NE 14.8
10 Maggio 2026 13:50 tempo osservato: Sereno Sereno 16 58 1012 vento: Nord N/NE 18.5
10 Maggio 2026 13:20 tempo osservato: Sereno Sereno 16 58 1013 vento: Nord N/NE 22.2
10 Maggio 2026 12:50 tempo osservato: Sereno Sereno 16 63 1013 vento: Nord N/NE 18.5
10 Maggio 2026 12:20 tempo osservato: Sereno Sereno 16 63 1013 vento: Nord NE 18.5
10 Maggio 2026 11:50 tempo osservato: Sereno Sereno 16 63 1013 vento: Nord N/NE 18.5
10 Maggio 2026 11:20 tempo osservato: Sereno Sereno 15 62 1013 vento: Nord N/NE 20.3
10 Maggio 2026 10:50 tempo osservato: Sereno Sereno 14 67 1014 vento: Nord N/NE 20.3
10 Maggio 2026 10:20 tempo osservato: Sereno Sereno 13 71 1014 vento: Nord N/NE 16.7
10 Maggio 2026 09:50 tempo osservato: Sereno Sereno 13 71 1014 vento: Nord N/NE 20.3
10 Maggio 2026 09:20 tempo osservato: Sereno Sereno 12 76 1014 vento: Nord N 14.8
10 Maggio 2026 08:50 tempo osservato: Sereno Sereno 11 81 1014 vento: Nord N/NE 13
10 Maggio 2026 08:20 tempo osservato: Sereno Sereno 11 81 1014 vento: Nord N 11.1
10 Maggio 2026 07:50 tempo osservato: Sereno Sereno 10 81 1014 vento: Nord N 13
10 Maggio 2026 07:20 tempo osservato: Sereno Sereno 10 81 1014 vento: Nord N 11.1
10 Maggio 2026 06:50 tempo osservato: Sereno Sereno 10 81 1014 vento: Nord N/NE 9.3
10 Maggio 2026 06:20 tempo osservato: Sereno Sereno 10 81 1014 vento: Nord N 9.3
10 Maggio 2026 05:50 tempo osservato: Sereno Sereno 9 87 1014 vento: Nord N/NE 9.3
10 Maggio 2026 05:20 tempo osservato: Sereno Sereno 10 81 1014 vento: Nord N 7.4
10 Maggio 2026 04:50 tempo osservato: Sereno Sereno 10 81 1014 vento: Nord N 5.5
10 Maggio 2026 04:20 tempo osservato: Sereno Sereno 11 71 1014 vento: Nord E/NE 9.3
10 Maggio 2026 03:50 tempo osservato: Sereno Sereno 11 76 1014 vento: Nord NE 7.4
10 Maggio 2026 03:20 tempo osservato: Sereno Sereno 11 76 1014 vento: Nord N/NE 7.4
10 Maggio 2026 02:50 tempo osservato: Sereno Sereno 10 76 1015 vento: Nord N 5.5
10 Maggio 2026 02:20 tempo osservato: Sereno Sereno 12 66 1015 vento: Nord NE 7.4
10 Maggio 2026 01:50 tempo osservato: Sereno Sereno 13 62 1015 vento: Nord E/NE 9.3
10 Maggio 2026 01:20 tempo osservato: Sereno Sereno 14 58 1015 vento: Nord E 11.1
10 Maggio 2026 00:50 tempo osservato: Sereno Sereno 14 58 1015 vento: Nord E/NE 13
10 Maggio 2026 00:20 tempo osservato: Sereno Sereno 14 58 1015 vento: Nord E/NE 11.1
9 Maggio 2026 23:50 tempo osservato: Sereno Sereno 14 62 1015 vento: Nord NE 11.1
9 Maggio 2026 23:20 tempo osservato: Sereno Sereno 14 62 1015 vento: Nord NE 13
9 Maggio 2026 22:50 tempo osservato: Sereno Sereno 14 62 1016 vento: Nord NE 14.8
9 Maggio 2026 22:20 tempo osservato: Sereno Sereno 14 62 1016 vento: Nord N/NE 11.1
9 Maggio 2026 21:50 tempo osservato: Sereno Sereno 14 62 1015 vento: Nord NE 13
9 Maggio 2026 21:20 tempo osservato: Sereno Sereno 15 58 1015 vento: Nord N/NE 11.1
9 Maggio 2026 20:50 tempo osservato: Sereno Sereno 16 55 1015 vento: Nord N/NE 13
9 Maggio 2026 20:20 tempo osservato: Sereno Sereno 17 51 1015 vento: Nord N/NE 9.3
9 Maggio 2026 19:50 tempo osservato: Sereno Sereno 18 45 1015 vento: Nord N/NE 13
9 Maggio 2026 19:20 tempo osservato: Sereno Sereno 19 45 1015 vento: Nord N/NE 14.8
9 Maggio 2026 18:50 tempo osservato: Sereno Sereno 19 45 1015 vento: Nord N 14.8